Heat Advisory
until 8:00 PM CDT
| Temperature (°F) | Max | Average | Min |
|---|---|---|---|
| Max Temperature | 95 | 90.03 | 80 |
| Avg Temperature | 89.75 | 80.3 | 74.25 |
| Min Temperature | 85 | 73.88 | 70 |
| Precipitation (in) | Max | Average | Min | Sum |
|---|---|---|---|---|
| Precipitation | 5.83 | 0.74 | 0 | 23.76 |
| Dew Point (°F) | Max | Average | Min |
|---|---|---|---|
| Dew Point | 75.62 | 72.06 | 67.92 |
| Wind (mph) | Max | Average | Min |
|---|---|---|---|
| Wind | 23 | 10.22 | 0 |
| Gust Wind | 41 | 24.57 | 17 |
| Sea Level Pressure (in) | Max | Average | Min |
|---|---|---|---|
| Sea Level Pressure | 29.54 | 29.42 | 29.29 |
| Date | Temp High/Low | Dew Pt High/Low | Humidity | Wind | Max Wind | Wind Gust | Pressure | Precip. | Condition |
|---|---|---|---|---|---|---|---|---|---|
| 7/1/2022 | 88 °F / 72 °F | 73 °F / 69 °F | 75 % | 13 mph | - | 29.45 in | 0 in | ||
| 7/2/2022 | 89 °F / 72 °F | 73 °F / 68 °F | 79 % | 10 mph | - | 29.42 in | 0 in | ||
| 7/3/2022 | 89 °F / 73 °F | 73 °F / 70 °F | 79 % | 7 mph | - | 29.46 in | 0 in | ||
| 7/4/2022 | 91 °F / 73 °F | 74 °F / 69 °F | 78 % | 7 mph | - | 29.48 in | 0 in | ||
| 7/5/2022 | 93 °F / 73 °F | 77 °F / 70 °F | 82 % | 17 mph | - | 29.43 in | 5.83 in | ||
| 7/6/2022 | 91 °F / 75 °F | 75 °F / 70 °F | 75 % | 7 mph | - | 29.39 in | 0 in | ||
| 7/7/2022 | 94 °F / 82 °F | 77 °F / 71 °F | 62 % | 10 mph | - | 29.38 in | 0 in | ||
| 7/8/2022 | 93 °F / 77 °F | 79 °F / 73 °F | 77 % | 13 mph | - | 29.4 in | 1.59 in | ||
| 7/9/2022 | 95 °F / 72 °F | 78 °F / 70 °F | 84 % | 21 mph | - | 29.38 in | 5.42 in | ||
| 7/10/2022 | 87 °F / 72 °F | 77 °F / 70 °F | 84 % | 10 mph | - | 29.32 in | 0.75 in | ||
| 7/11/2022 | 90 °F / 73 °F | 74 °F / 70 °F | 79 % | 7 mph | - | 29.29 in | 0 in | ||
| 7/12/2022 | 90 °F / 75 °F | 74 °F / 69 °F | 79 % | 7 mph | - | 29.32 in | 0 in | ||
| 7/13/2022 | 89 °F / 74 °F | 74 °F / 68 °F | 79 % | 8 mph | - | 29.4 in | 0 in | ||
| 7/14/2022 | 88 °F / 73 °F | 73 °F / 69 °F | 76 % | 7 mph | - | 29.47 in | 0 in | ||
| 7/15/2022 | 92 °F / 71 °F | 71 °F / 62 °F | 68 % | 6 mph | - | 29.48 in | 0 in | ||
| 7/16/2022 | 90 °F / 72 °F | 73 °F / 65 °F | 72 % | 7 mph | - | 29.43 in | 0 in | ||
| 7/17/2022 | 91 °F / 73 °F | 73 °F / 67 °F | 68 % | 10 mph | - | 29.39 in | 0 in | ||
| 7/18/2022 | 90 °F / 74 °F | 73 °F / 68 °F | 82 % | 20 mph | - | 29.36 in | 2.48 in | ||
| 7/19/2022 | 89 °F / 74 °F | 75 °F / 70 °F | 78 % | 9 mph | - | 29.38 in | 0.02 in | ||
| 7/20/2022 | 93 °F / 77 °F | 75 °F / 72 °F | 74 % | 9 mph | - | 29.33 in | 0 in | ||
| 7/21/2022 | 93 °F / 70 °F | 78 °F / 65 °F | 83 % | 23 mph | - | 29.33 in | 2.22 in | ||
| 7/22/2022 | 84 °F / 72 °F | 74 °F / 68 °F | 84 % | 7 mph | - | 29.44 in | 0.05 in | ||
| 7/23/2022 | 88 °F / 73 °F | 75 °F / 68 °F | 83 % | 18 mph | - | 29.5 in | 0.41 in | ||
| 7/24/2022 | 90 °F / 73 °F | 74 °F / 71 °F | 75 % | 9 mph | - | 29.48 in | 0 in | ||
| 7/25/2022 | 88 °F / 74 °F | 75 °F / 69 °F | 81 % | 8 mph | - | 29.48 in | 0 in | ||
| 7/26/2022 | 89 °F / 73 °F | 74 °F / 71 °F | 78 % | 9 mph | - | 29.49 in | 0 in | ||
| 7/27/2022 | 91 °F / 74 °F | 74 °F / 70 °F | 72 % | 9 mph | - | 29.46 in | 0 in | ||
| 7/28/2022 | 92 °F / 75 °F | 75 °F / 69 °F | 71 % | 8 mph | - | 29.43 in | 0 in | ||
| 7/29/2022 | 92 °F / 74 °F | 74 °F / 72 °F | 76 % | 9 mph | - | 29.45 in | 0 in | ||
| 7/30/2022 | 93 °F / 73 °F | 75 °F / 71 °F | 84 % | 10 mph | - | 29.51 in | 4.99 in | ||
| 7/31/2022 | 89 °F / 73 °F | 73 °F / 66 °F | 81 % | 10 mph | - | 29.54 in | 0 in |